createdAt,value
2024-02-03T00:01:14.990Z,97686.09
2024-02-03T00:03:43.463Z,97637.47
2024-02-03T00:06:11.793Z,97648.47
2024-02-03T00:08:40.186Z,97682.38
2024-02-03T00:11:11.889Z,97670.28
2024-02-03T00:13:40.235Z,97663.19
2024-02-03T00:16:09.201Z,97700.53
2024-02-03T00:18:38.839Z,97692.50
2024-02-03T00:21:07.793Z,97662.34
2024-02-03T00:23:36.303Z,97652.09
2024-02-03T00:26:04.785Z,97685.00
2024-02-03T00:28:33.009Z,97715.69
2024-02-03T00:31:01.884Z,97649.38
2024-02-03T00:33:30.284Z,97646.97
2024-02-03T00:36:00.147Z,97646.78
2024-02-03T00:38:28.569Z,97651.44
2024-02-03T00:40:56.850Z,97632.00
2024-02-03T00:43:25.619Z,97714.75
2024-02-03T00:45:53.968Z,97680.69
2024-02-03T00:48:22.401Z,97709.91
2024-02-03T00:50:50.997Z,97685.91
2024-02-03T00:53:20.881Z,97664.38
2024-02-03T00:55:49.139Z,97665.00
2024-02-03T00:58:17.793Z,97671.78
2024-02-03T01:00:46.094Z,97679.22
2024-02-03T01:03:14.511Z,97648.69
2024-02-03T01:05:48.701Z,97703.41
2024-02-03T01:08:17.091Z,97652.13
2024-02-03T01:10:46.785Z,97676.25
2024-02-03T01:13:15.915Z,97656.66
2024-02-03T01:15:44.392Z,97656.81
2024-02-03T01:18:12.731Z,97669.34
2024-02-03T01:20:41.169Z,97645.38
2024-02-03T01:23:09.404Z,97642.09
2024-02-03T01:25:37.817Z,97688.84
2024-02-03T01:28:07.851Z,97644.72
2024-02-03T01:30:36.241Z,97642.47
2024-02-03T01:33:04.800Z,97659.78
2024-02-03T01:35:33.319Z,97639.13
2024-02-03T01:38:01.710Z,97646.22
2024-02-03T01:40:30.431Z,97608.88
2024-02-03T01:43:02.387Z,97685.72
2024-02-03T01:45:32.333Z,97628.19
2024-02-03T01:48:01.110Z,97676.44
2024-02-03T01:50:32.507Z,97648.63
2024-02-03T01:53:01.393Z,97632.94
2024-02-03T01:55:30.880Z,97676.63
2024-02-03T01:58:03.829Z,97691.69
2024-02-03T02:00:34.115Z,97657.69
2024-02-03T02:03:02.725Z,97632.16
2024-02-03T02:05:31.560Z,97607.03
2024-02-03T02:07:59.806Z,97662.19
2024-02-03T02:10:28.383Z,97663.03
2024-02-03T02:12:57.211Z,97635.44
2024-02-03T02:15:25.576Z,97617.22
2024-02-03T02:18:00.757Z,97656.72
2024-02-03T02:20:30.905Z,97640.00
2024-02-03T02:22:59.146Z,97632.72
2024-02-03T02:25:28.330Z,97588.91
2024-02-03T02:27:56.677Z,97625.53
2024-02-03T02:30:25.195Z,97628.94
2024-02-03T02:32:53.583Z,97641.78
2024-02-03T02:35:21.888Z,97656.06
2024-02-03T02:37:52.582Z,97639.16
2024-02-03T02:40:21.412Z,97647.94
2024-02-03T02:42:49.950Z,97652.72
2024-02-03T02:45:18.663Z,97640.75
2024-02-03T02:47:46.976Z,97576.09
2024-02-03T02:50:15.343Z,97647.78
2024-02-03T02:52:44.607Z,97648.47
2024-02-03T02:55:14.780Z,97639.91
2024-02-03T02:57:43.188Z,97558.25
2024-02-03T03:00:13.326Z,97628.22
2024-02-03T03:02:41.847Z,97621.59
2024-02-03T03:05:13.024Z,97598.03
2024-02-03T03:07:42.342Z,97624.88
2024-02-03T03:10:11.124Z,97519.19
2024-02-03T03:12:43.222Z,97629.06
2024-02-03T03:15:11.834Z,97498.75
2024-02-03T03:17:40.424Z,97627.88
2024-02-03T03:20:12.631Z,97576.88
2024-02-03T03:22:40.912Z,97616.91
2024-02-03T03:25:09.644Z,97641.28
2024-02-03T03:27:38.916Z,97574.16
2024-02-03T03:30:10.809Z,97659.25
2024-02-03T03:32:39.306Z,97601.34
2024-02-03T03:35:08.931Z,97662.19
2024-02-03T03:37:37.514Z,97651.28
2024-02-03T03:40:07.924Z,97655.09
2024-02-03T03:42:36.209Z,97654.50
2024-02-03T03:45:05.264Z,97605.63
2024-02-03T03:47:34.896Z,97623.47
2024-02-03T03:50:03.360Z,97645.88
2024-02-03T03:52:31.622Z,97640.16
2024-02-03T03:55:01.726Z,97614.69
2024-02-03T03:57:32.408Z,97727.25
2024-02-03T04:00:00.820Z,97642.28
2024-02-03T04:02:29.031Z,97696.72
2024-02-03T04:04:58.763Z,97632.06
2024-02-03T04:07:27.055Z,97631.44
2024-02-03T04:09:56.829Z,97631.03
2024-02-03T04:12:25.321Z,97668.84
2024-02-03T04:14:53.987Z,97644.41
2024-02-03T04:17:25.409Z,97679.22
2024-02-03T04:19:54.450Z,97624.94
2024-02-03T04:22:24.232Z,97654.78
2024-02-03T04:24:54.882Z,97606.97
2024-02-03T04:27:23.370Z,97646.50
2024-02-03T04:29:52.057Z,97586.59
2024-02-03T04:32:23.517Z,97618.69
2024-02-03T04:34:51.837Z,97664.06
2024-02-03T04:37:20.167Z,97653.41
2024-02-03T04:39:49.859Z,97628.94
2024-02-03T04:42:18.235Z,97556.38
2024-02-03T04:44:46.556Z,97701.38
2024-02-03T04:47:14.978Z,97658.63
2024-02-03T04:49:43.287Z,97665.16
2024-02-03T04:52:11.729Z,97623.81
2024-02-03T04:54:40.078Z,97633.16
2024-02-03T04:57:10.221Z,97626.25
2024-02-03T04:59:38.440Z,97631.91
2024-02-03T05:02:06.842Z,97629.16
2024-02-03T05:04:35.153Z,97653.84
2024-02-03T05:07:03.852Z,97578.03
2024-02-03T05:09:32.206Z,97653.66
2024-02-03T05:12:03.057Z,97641.03
2024-02-03T05:14:32.760Z,97621.03
2024-02-03T05:17:01.125Z,97628.16
2024-02-03T05:19:30.185Z,97648.72
2024-02-03T05:21:58.589Z,97638.81
2024-02-03T05:24:26.816Z,97619.34
2024-02-03T05:26:55.572Z,97643.25
2024-02-03T05:29:23.789Z,97596.47
2024-02-03T05:31:53.521Z,97642.41
2024-02-03T05:34:21.803Z,97630.88
2024-02-03T05:36:50.160Z,97645.56
2024-02-03T05:39:19.277Z,97665.09
2024-02-03T05:41:47.625Z,97700.25
2024-02-03T05:44:15.948Z,97638.88
2024-02-03T05:46:44.284Z,97654.88
2024-02-03T05:49:14.224Z,97628.44
2024-02-03T05:51:42.604Z,97635.63
2024-02-03T05:54:10.998Z,97678.97
2024-02-03T05:56:39.849Z,97656.88
2024-02-03T06:01:41.342Z,97643.50
2024-02-03T06:04:10.217Z,97613.19
2024-02-03T06:06:40.593Z,97684.13
2024-02-03T06:09:09.592Z,97636.59
2024-02-03T06:11:38.195Z,97619.06
2024-02-03T06:14:06.453Z,97714.63
2024-02-03T06:16:34.956Z,97624.50
2024-02-03T06:19:04.726Z,97639.53
2024-02-03T06:21:33.302Z,97587.28
2024-02-03T06:24:04.250Z,97658.78
2024-02-03T06:26:33.072Z,97644.31
2024-02-03T06:29:01.505Z,97647.34
2024-02-03T06:31:30.808Z,97670.97
2024-02-03T06:33:59.224Z,97625.56
2024-02-03T06:36:27.571Z,97628.81
2024-02-03T06:38:55.891Z,97646.97
2024-02-03T06:41:25.659Z,97699.06
2024-02-03T06:43:53.918Z,97659.41
2024-02-03T06:46:22.167Z,97704.50
2024-02-03T06:48:52.256Z,97668.56
2024-02-03T06:51:20.846Z,97646.84
2024-02-03T06:53:49.211Z,97646.66
2024-02-03T06:56:17.592Z,97688.84
2024-02-03T06:58:49.324Z,97670.16
2024-02-03T07:01:17.686Z,97717.03
2024-02-03T07:03:46.441Z,97670.03
2024-02-03T07:06:15.241Z,97722.47
2024-02-03T07:08:44.550Z,97716.84
2024-02-03T07:11:13.831Z,97727.91
2024-02-03T07:13:43.255Z,97678.84
2024-02-03T07:16:12.898Z,97666.59
2024-02-03T07:18:41.460Z,97669.84
2024-02-03T07:21:10.041Z,97694.09
2024-02-03T07:23:38.362Z,97591.66
2024-02-03T07:26:07.091Z,97723.94
2024-02-03T07:28:35.580Z,97668.81
2024-02-03T07:31:04.132Z,97645.84
2024-02-03T07:33:34.112Z,97632.66
2024-02-03T07:36:02.596Z,97690.94
2024-02-03T07:38:31.456Z,97636.66
2024-02-03T07:40:59.713Z,97679.03
2024-02-03T07:43:27.971Z,97695.34
2024-02-03T07:45:56.445Z,97648.13
2024-02-03T07:48:25.197Z,97726.63
2024-02-03T07:50:54.865Z,97723.22
2024-02-03T07:53:23.408Z,97737.81
2024-02-03T07:55:51.797Z,97719.78
2024-02-03T07:58:20.612Z,97651.00
2024-02-03T08:00:48.870Z,97680.72
2024-02-03T08:03:17.484Z,97719.22
2024-02-03T08:05:45.871Z,97722.69
2024-02-03T08:08:15.596Z,97631.13
2024-02-03T08:10:44.307Z,97685.50
2024-02-03T08:13:12.666Z,97674.84
2024-02-03T08:15:41.161Z,97728.72
2024-02-03T08:18:09.505Z,97625.03
2024-02-03T08:20:38.095Z,97706.81
2024-02-03T08:23:06.607Z,97706.31
2024-02-03T08:25:36.424Z,97704.31
2024-02-03T08:28:05.462Z,97708.50
2024-02-03T08:30:33.922Z,97696.16
2024-02-03T08:33:02.358Z,97733.84
2024-02-03T08:35:30.824Z,97727.19
2024-02-03T08:37:59.198Z,97681.75
2024-02-03T08:40:29.568Z,97717.25
2024-02-03T08:42:59.595Z,97708.91
2024-02-03T08:45:28.157Z,97720.78
2024-02-03T08:47:56.579Z,97690.84
2024-02-03T08:50:25.236Z,97700.53
2024-02-03T08:52:53.516Z,97647.63
2024-02-03T08:55:22.246Z,97737.06
2024-02-03T08:57:50.616Z,97659.09
2024-02-03T09:00:21.290Z,97711.69
2024-02-03T09:02:49.626Z,97707.22
2024-02-03T09:05:19.600Z,97765.91
2024-02-03T09:07:48.186Z,97741.69
2024-02-03T09:10:18.674Z,97721.63
2024-02-03T09:12:47.153Z,97731.03
2024-02-03T09:15:15.629Z,97671.03
2024-02-03T09:17:45.623Z,97703.03
2024-02-03T09:20:14.074Z,97695.53
2024-02-03T09:22:43.313Z,97654.19
2024-02-03T09:25:13.587Z,97690.31
2024-02-03T09:27:42.456Z,97721.22
2024-02-03T09:30:14.402Z,97695.22
2024-02-03T09:32:44.148Z,97690.50
2024-02-03T09:35:12.644Z,97676.31
2024-02-03T09:40:22.080Z,97641.03
2024-02-03T09:42:51.253Z,97705.97
2024-02-03T09:45:21.356Z,97560.69
2024-02-03T09:47:51.696Z,97728.13
2024-02-03T09:50:20.261Z,97673.47
2024-02-03T09:52:50.372Z,97653.16
2024-02-03T09:55:22.503Z,97669.66
2024-02-03T09:57:51.677Z,97648.59
2024-02-03T10:00:22.297Z,97701.78
2024-02-03T10:02:52.214Z,97733.84
2024-02-03T10:05:29.062Z,97714.13
2024-02-03T10:08:06.248Z,97714.22
2024-02-03T10:13:10.045Z,97662.59
2024-02-03T10:15:39.232Z,97626.41
2024-02-03T10:18:09.660Z,97668.41
2024-02-03T10:20:38.787Z,97689.63
2024-02-03T10:23:08.436Z,97718.03
2024-02-03T10:25:37.100Z,97635.69
2024-02-03T10:28:07.710Z,97682.44
2024-02-03T10:30:39.566Z,97700.59
2024-02-03T10:33:09.602Z,97673.13
2024-02-03T10:35:39.508Z,97661.59
2024-02-03T10:38:08.742Z,97677.44
2024-02-03T10:40:37.478Z,97670.50
2024-02-03T10:43:13.646Z,97660.47
2024-02-03T10:45:45.934Z,97638.22
2024-02-03T10:48:21.126Z,97677.94
2024-02-03T10:50:55.226Z,97692.34
2024-02-03T10:53:31.857Z,97672.72
2024-02-03T10:56:05.711Z,97691.00
2024-02-03T10:58:35.236Z,97666.56
2024-02-03T11:01:14.417Z,97657.53
2024-02-03T11:03:52.359Z,97624.38
2024-02-03T11:06:35.030Z,97602.59
2024-02-03T11:09:14.704Z,97671.03
2024-02-03T11:11:43.686Z,97675.38
2024-02-03T11:14:14.545Z,97654.56
2024-02-03T11:16:43.590Z,97676.25
2024-02-03T11:19:14.546Z,97698.84
2024-02-03T11:21:45.077Z,97718.38
2024-02-03T11:24:13.488Z,97666.09
2024-02-03T11:26:42.039Z,97664.66
2024-02-03T11:29:10.651Z,97662.28
2024-02-03T11:31:39.713Z,97660.91
2024-02-03T11:34:08.220Z,97650.34
2024-02-03T11:36:39.019Z,97636.38
2024-02-03T11:39:08.226Z,97654.97
2024-02-03T11:41:36.943Z,97607.22
2024-02-03T11:44:05.823Z,97661.19
2024-02-03T11:46:34.188Z,97724.19
2024-02-03T11:49:03.867Z,97635.09
2024-02-03T11:51:32.299Z,97682.06
2024-02-03T11:54:07.718Z,97664.59
2024-02-03T11:56:37.667Z,97634.28
2024-02-03T11:59:11.843Z,97633.81
2024-02-03T12:01:41.479Z,97611.00
2024-02-03T12:04:10.170Z,97637.91
2024-02-03T12:06:38.797Z,97654.16
2024-02-03T12:09:10.038Z,97604.19
2024-02-03T12:11:38.572Z,97674.03
2024-02-03T12:14:06.923Z,97633.53
2024-02-03T12:16:35.783Z,97639.53
2024-02-03T12:19:05.546Z,97593.50
2024-02-03T12:21:34.111Z,97618.81
2024-02-03T12:24:02.816Z,97648.34
2024-02-03T12:26:32.557Z,97630.53
2024-02-03T12:29:01.814Z,97638.28
2024-02-03T12:31:30.307Z,97603.06
2024-02-03T12:33:59.026Z,97589.84
2024-02-03T12:36:29.557Z,97673.81
2024-02-03T12:38:59.985Z,97645.84
2024-02-03T12:41:28.460Z,97641.31
2024-02-03T12:43:58.374Z,97625.63
2024-02-03T12:46:27.219Z,97670.81
2024-02-03T12:48:55.892Z,97657.00
2024-02-03T12:51:24.236Z,97576.75
2024-02-03T12:53:52.521Z,97603.66
2024-02-03T12:56:20.789Z,97605.22
2024-02-03T12:58:51.232Z,97591.91
2024-02-03T13:01:21.669Z,97560.59
2024-02-03T13:03:51.941Z,97638.38
2024-02-03T13:06:27.046Z,97609.13
2024-02-03T13:08:57.453Z,97609.38
2024-02-03T13:11:25.939Z,97602.78
2024-02-03T13:13:54.188Z,97630.75
2024-02-03T13:16:23.982Z,97618.19
2024-02-03T13:18:52.356Z,97649.66
2024-02-03T13:21:20.648Z,97649.34
2024-02-03T13:23:48.997Z,97648.22
2024-02-03T13:26:17.298Z,97626.03
2024-02-03T13:28:45.611Z,97615.84
2024-02-03T13:31:14.017Z,97638.38
2024-02-03T13:33:44.523Z,97658.34
2024-02-03T13:36:12.960Z,97645.84
2024-02-03T13:38:41.761Z,97588.06
2024-02-03T13:41:10.278Z,97656.09
2024-02-03T13:43:38.826Z,97625.91
2024-02-03T13:46:08.499Z,97642.97
2024-02-03T13:48:37.016Z,97606.16
2024-02-03T13:51:07.487Z,97611.81
2024-02-03T13:53:35.764Z,97590.38
2024-02-03T13:56:06.147Z,97609.78
2024-02-03T13:58:34.768Z,97516.41
2024-02-03T14:01:03.152Z,97573.53
2024-02-03T14:03:31.742Z,97570.22
2024-02-03T14:06:00.145Z,97539.53
2024-02-03T14:08:29.844Z,97481.00
2024-02-03T14:10:58.383Z,97558.69
2024-02-03T14:13:26.638Z,97583.13
2024-02-03T14:15:55.562Z,97553.56
2024-02-03T14:18:24.316Z,97610.22
2024-02-03T14:20:52.905Z,97607.72
2024-02-03T14:23:21.277Z,97604.44
2024-02-03T14:25:50.909Z,97618.28
2024-02-03T14:28:19.368Z,97575.22
2024-02-03T14:30:47.757Z,97551.09
2024-02-03T14:33:19.577Z,97578.66
2024-02-03T14:35:48.359Z,97572.97
2024-02-03T14:38:16.731Z,97605.19
2024-02-03T14:40:45.177Z,97607.09
2024-02-03T14:43:15.216Z,97581.75
2024-02-03T14:45:44.075Z,97617.13
2024-02-03T14:48:12.664Z,97602.31
2024-02-03T14:50:41.035Z,97558.38
2024-02-03T14:53:09.671Z,97534.56
2024-02-03T14:55:38.327Z,97570.47
2024-02-03T14:58:06.583Z,97551.44
2024-02-03T15:00:36.261Z,97605.72
2024-02-03T15:03:05.275Z,97565.03
2024-02-03T15:05:36.263Z,97588.44
2024-02-03T15:08:05.947Z,97538.13
2024-02-03T15:10:35.361Z,97560.72
2024-02-03T15:13:04.756Z,97556.94
2024-02-03T15:15:33.180Z,97586.69
2024-02-03T15:18:04.444Z,97594.53
2024-02-03T15:20:32.952Z,97512.00
2024-02-03T15:23:03.038Z,97582.88
2024-02-03T15:25:31.361Z,97587.06
2024-02-03T15:28:00.405Z,97523.16
2024-02-03T15:30:28.890Z,97590.97
2024-02-03T15:32:57.533Z,97595.25
2024-02-03T15:35:27.233Z,97537.53
2024-02-03T15:37:56.196Z,97593.81
2024-02-03T15:40:27.248Z,97585.16
2024-02-03T15:42:58.601Z,97490.56
2024-02-03T15:45:27.699Z,97487.16
2024-02-03T15:47:56.209Z,97560.03
2024-02-03T15:50:26.653Z,97588.34
2024-02-03T15:52:55.075Z,97574.41
2024-02-03T15:55:23.945Z,97437.44
2024-02-03T15:57:52.429Z,97555.00
2024-02-03T16:00:21.436Z,97600.97
2024-02-03T16:02:50.215Z,97576.19
2024-02-03T16:05:18.716Z,97575.22
2024-02-03T16:07:48.550Z,97425.81
2024-02-03T16:10:17.307Z,97555.84
2024-02-03T16:12:45.795Z,97522.31
2024-02-03T16:15:15.830Z,97590.94
2024-02-03T16:17:44.862Z,97521.84
2024-02-03T16:20:15.977Z,97576.91
2024-02-03T16:22:46.559Z,97409.13
2024-02-03T16:25:17.394Z,97520.44
2024-02-03T16:27:46.834Z,97564.47
2024-02-03T16:30:16.818Z,97545.50
2024-02-03T16:32:46.273Z,97577.84
2024-02-03T16:35:15.070Z,97594.25
2024-02-03T16:37:43.493Z,97561.03
2024-02-03T16:40:13.530Z,97600.72
2024-02-03T16:42:43.335Z,97544.31
2024-02-03T16:45:11.888Z,97552.88
2024-02-03T16:47:40.814Z,97498.56
2024-02-03T16:50:10.062Z,97541.72
2024-02-03T16:52:40.080Z,97575.84
2024-02-03T16:55:09.332Z,97561.53
2024-02-03T16:57:37.681Z,97544.75
2024-02-03T17:00:10.638Z,97590.50
2024-02-03T17:02:39.607Z,97605.09
2024-02-03T17:05:09.038Z,97626.69
2024-02-03T17:07:39.082Z,97598.09
2024-02-03T17:10:17.655Z,97578.34
2024-02-03T17:13:01.733Z,97582.28
2024-02-03T17:15:33.056Z,97566.47
2024-02-03T17:18:01.478Z,97560.25
2024-02-03T17:20:29.865Z,97564.53
2024-02-03T17:22:58.185Z,97574.06
2024-02-03T17:25:26.514Z,97613.22
2024-02-03T17:27:54.907Z,97478.59
2024-02-03T17:30:23.237Z,97588.09
2024-02-03T17:32:53.169Z,97564.31
2024-02-03T17:35:21.447Z,97594.06
2024-02-03T17:37:50.363Z,97521.16
2024-02-03T17:40:18.805Z,97596.00
2024-02-03T17:42:50.406Z,97575.50
2024-02-03T17:45:22.463Z,97582.66
2024-02-03T17:47:54.258Z,97587.50
2024-02-03T17:50:22.500Z,97562.88
2024-02-03T17:52:50.896Z,97578.72
2024-02-03T17:55:19.153Z,97583.50
2024-02-03T17:57:47.762Z,97610.22
2024-02-03T18:00:17.121Z,97562.19
2024-02-03T18:02:45.796Z,97591.66
2024-02-03T18:05:18.881Z,97578.16
2024-02-03T18:07:47.289Z,97592.13
2024-02-03T18:10:15.875Z,97596.22
2024-02-03T18:12:44.495Z,97594.53
2024-02-03T18:15:13.037Z,97400.63
2024-02-03T18:17:41.320Z,97544.28
2024-02-03T18:20:15.973Z,97556.47
2024-02-03T18:22:48.259Z,97628.78
2024-02-03T18:25:16.531Z,97638.53
2024-02-03T18:27:44.995Z,97594.72
2024-02-03T18:30:14.790Z,97554.75
2024-02-03T18:32:45.330Z,97616.66
2024-02-03T18:35:13.869Z,97526.34
2024-02-03T18:37:42.256Z,97623.78
2024-02-03T18:40:13.110Z,97552.69
2024-02-03T18:42:44.052Z,97556.78
2024-02-03T18:45:13.696Z,97564.84
2024-02-03T18:47:42.353Z,97562.59
2024-02-03T18:50:11.406Z,97559.88
2024-02-03T18:52:43.721Z,97580.09
2024-02-03T18:55:13.374Z,97577.81
2024-02-03T18:57:41.715Z,97563.59
2024-02-03T19:00:11.832Z,97575.13
2024-02-03T19:02:40.077Z,97600.22
2024-02-03T19:05:18.468Z,97578.56
2024-02-03T19:07:54.659Z,97599.00
2024-02-03T19:10:24.319Z,97537.44
2024-02-03T19:13:00.907Z,97570.72
2024-02-03T19:15:29.864Z,97595.34
2024-02-03T19:17:59.375Z,97511.56
2024-02-03T19:20:27.819Z,97582.13
2024-02-03T19:22:56.158Z,97598.66
2024-02-03T19:25:25.737Z,97557.78
2024-02-03T19:27:54.570Z,97582.53
2024-02-03T19:30:23.404Z,97571.91
2024-02-03T19:32:51.818Z,97556.38
2024-02-03T19:35:20.853Z,97436.75
2024-02-03T19:37:49.082Z,97544.44
2024-02-03T19:40:19.694Z,97575.81
2024-02-03T19:42:49.417Z,97526.59
2024-02-03T19:45:17.865Z,97540.06
2024-02-03T19:47:48.589Z,97577.03
2024-02-03T19:50:17.361Z,97568.78
2024-02-03T19:52:45.675Z,97517.63
2024-02-03T19:55:14.240Z,97512.03
2024-02-03T19:57:46.672Z,97604.88
2024-02-03T20:00:20.001Z,97582.63
2024-02-03T20:02:48.386Z,97572.06
2024-02-03T20:05:16.981Z,97561.66
2024-02-03T20:07:46.277Z,97576.41
2024-02-03T20:10:17.366Z,97573.91
2024-02-03T20:12:46.022Z,97592.25
2024-02-03T20:15:14.907Z,97565.88
2024-02-03T20:17:44.612Z,97585.25
2024-02-03T20:20:13.973Z,97563.47
2024-02-03T20:22:43.223Z,97590.47
2024-02-03T20:25:11.750Z,97569.63
2024-02-03T20:27:40.358Z,97571.13
2024-02-03T20:30:10.082Z,97566.44
2024-02-03T20:32:38.527Z,97567.66
2024-02-03T20:35:09.113Z,97546.59
2024-02-03T20:37:37.638Z,97579.84
2024-02-03T20:40:08.556Z,97570.31
2024-02-03T20:42:37.027Z,97584.88
2024-02-03T20:45:06.770Z,97543.09
2024-02-03T20:47:35.345Z,97548.72
2024-02-03T20:50:03.868Z,97572.53
2024-02-03T20:52:35.825Z,97468.59
2024-02-03T20:55:04.254Z,97534.69
2024-02-03T20:57:32.995Z,97579.03
2024-02-03T21:00:01.539Z,97522.47
2024-02-03T21:02:30.889Z,97500.72
2024-02-03T21:04:59.709Z,97530.81
2024-02-03T21:07:28.244Z,97540.44
2024-02-03T21:10:05.474Z,97563.03
2024-02-03T21:12:34.407Z,97577.25
2024-02-03T21:15:02.855Z,97560.41
2024-02-03T21:17:31.893Z,97616.03
2024-02-03T21:20:00.566Z,97571.09
2024-02-03T21:22:29.282Z,97551.47
2024-02-03T21:24:57.711Z,97536.47
2024-02-03T21:27:27.630Z,97619.38
2024-02-03T21:29:56.169Z,97581.44
2024-02-03T21:32:24.730Z,97554.34
2024-02-03T21:34:53.145Z,97561.72
2024-02-03T21:37:22.936Z,97554.09
2024-02-03T21:39:51.361Z,97537.19
2024-02-03T21:42:20.220Z,97575.50
2024-02-03T21:44:50.726Z,97570.25
2024-02-03T21:47:19.038Z,97588.84
2024-02-03T21:49:47.474Z,97547.91
2024-02-03T21:52:15.799Z,97571.94
2024-02-03T21:54:44.510Z,97544.56
2024-02-03T21:57:12.934Z,97563.59
2024-02-03T21:59:41.196Z,97559.56
2024-02-03T22:02:11.053Z,97555.03
2024-02-03T22:04:39.494Z,97562.66
2024-02-03T22:07:07.953Z,97560.50
2024-02-03T22:09:36.443Z,97567.63
2024-02-03T22:12:05.133Z,97455.78
2024-02-03T22:14:33.784Z,97492.25
2024-02-03T22:17:02.705Z,97548.16
2024-02-03T22:19:32.570Z,97521.50
2024-02-03T22:22:01.005Z,97519.00
2024-02-03T22:24:30.794Z,97530.06
2024-02-03T22:26:59.089Z,97533.63
2024-02-03T22:29:29.678Z,97325.28
2024-02-03T22:31:59.073Z,97543.50
2024-02-03T22:34:28.079Z,97504.59
2024-02-03T22:36:57.842Z,97537.91
2024-02-03T22:39:26.210Z,97525.53
2024-02-03T22:41:57.332Z,97546.47
2024-02-03T22:44:25.720Z,97583.44
2024-02-03T22:46:54.117Z,97495.56
2024-02-03T22:49:25.141Z,97474.28
2024-02-03T22:51:53.693Z,97548.25
2024-02-03T22:54:23.748Z,97468.44
2024-02-03T22:56:52.591Z,97535.75
2024-02-03T22:59:20.827Z,97550.28
2024-02-03T23:01:49.255Z,97561.56
2024-02-03T23:04:27.787Z,97585.00
2024-02-03T23:06:56.386Z,97537.53
2024-02-03T23:09:31.337Z,97551.19
2024-02-03T23:12:12.193Z,97518.97
2024-02-03T23:14:40.397Z,97552.16
2024-02-03T23:17:08.879Z,97572.03
2024-02-03T23:19:37.301Z,97589.75
2024-02-03T23:22:06.252Z,97591.75
2024-02-03T23:24:36.033Z,97559.25
2024-02-03T23:27:05.097Z,97605.66
2024-02-03T23:29:33.605Z,97617.66
2024-02-03T23:32:02.171Z,97551.00
2024-02-03T23:34:30.734Z,97426.13
2024-02-03T23:36:59.202Z,97509.38
2024-02-03T23:39:28.241Z,97500.56
2024-02-03T23:41:57.886Z,97529.41
2024-02-03T23:44:26.365Z,97487.09
2024-02-03T23:46:54.719Z,97546.38
2024-02-03T23:49:23.226Z,97519.97
2024-02-03T23:51:51.590Z,97493.06
2024-02-03T23:54:21.797Z,97492.34
2024-02-03T23:56:51.059Z,97524.44
2024-02-03T23:59:20.838Z,97503.16
